createdAt,value
2019-05-25T00:00:36.461Z,16.91
2019-05-25T00:01:36.474Z,16.90
2019-05-25T00:02:36.439Z,16.88
2019-05-25T00:03:36.433Z,16.84
2019-05-25T00:04:36.419Z,16.80
2019-05-25T00:05:36.406Z,16.77
2019-05-25T00:06:36.398Z,16.70
2019-05-25T00:07:36.396Z,16.75
2019-05-25T00:08:36.374Z,16.70
2019-05-25T00:09:36.367Z,16.72
2019-05-25T00:10:36.353Z,16.72
2019-05-25T00:11:36.354Z,16.65
2019-05-25T00:12:36.342Z,16.62
2019-05-25T00:13:36.322Z,16.67
2019-05-25T00:14:36.310Z,16.62
2019-05-25T00:15:36.300Z,16.63
2019-05-25T00:16:36.296Z,16.59
2019-05-25T00:17:36.291Z,16.51
2019-05-25T00:18:36.266Z,16.51
2019-05-25T00:19:36.263Z,16.44
2019-05-25T00:20:36.248Z,16.52
2019-05-25T00:21:36.237Z,16.45
2019-05-25T00:22:36.238Z,16.45
2019-05-25T00:23:36.214Z,16.45
2019-05-25T00:24:36.203Z,16.42
2019-05-25T00:25:36.193Z,16.47
2019-05-25T00:26:36.181Z,16.42
2019-05-25T00:27:36.184Z,16.41
2019-05-25T00:28:36.219Z,16.42
2019-05-25T00:29:36.148Z,16.33
2019-05-25T00:30:36.139Z,16.37
2019-05-25T00:31:36.129Z,16.32
2019-05-25T00:32:36.127Z,16.30
2019-05-25T00:33:36.106Z,16.27
2019-05-25T00:34:36.094Z,16.32
2019-05-25T00:35:36.093Z,16.32
2019-05-25T00:36:36.073Z,16.30
2019-05-25T00:37:36.075Z,16.25
2019-05-25T00:38:36.052Z,16.30
2019-05-25T00:39:36.041Z,16.29
2019-05-25T00:40:36.038Z,16.29
2019-05-25T00:41:36.025Z,16.22
2019-05-25T00:42:36.021Z,16.23
2019-05-25T00:43:36.003Z,16.18
2019-05-25T00:44:35.990Z,16.23
2019-05-25T00:45:35.977Z,16.32
2019-05-25T00:46:35.981Z,16.26
2019-05-25T00:47:36.017Z,16.18
2019-05-25T00:48:35.944Z,16.18
2019-05-25T00:49:35.934Z,16.16
2019-05-25T00:50:35.935Z,16.22
2019-05-25T00:51:35.914Z,16.13
2019-05-25T00:52:35.915Z,16.11
2019-05-25T00:53:35.900Z,16.10
2019-05-25T00:54:35.882Z,16.08
2019-05-25T00:55:35.869Z,16.04
2019-05-25T00:56:35.859Z,16.01
2019-05-25T00:57:35.861Z,15.99
2019-05-25T00:58:35.837Z,16.03
2019-05-25T00:59:35.827Z,15.99
2019-05-25T01:00:35.815Z,15.96
2019-05-25T01:01:35.815Z,15.98
2019-05-25T01:02:35.830Z,15.99
2019-05-25T01:03:35.783Z,15.95
2019-05-25T01:04:35.773Z,16.01
2019-05-25T01:05:35.766Z,16.06
2019-05-25T01:06:35.751Z,16.01
2019-05-25T01:07:35.750Z,16.03
2019-05-25T01:08:35.743Z,16.06
2019-05-25T01:09:35.728Z,16.01
2019-05-25T01:10:35.708Z,16.03
2019-05-25T01:11:35.705Z,15.98
2019-05-25T01:12:35.690Z,15.99
2019-05-25T01:13:35.690Z,15.93
2019-05-25T01:14:35.685Z,15.96
2019-05-25T01:15:35.655Z,15.91
2019-05-25T01:16:35.649Z,15.93
2019-05-25T01:17:35.632Z,15.91
2019-05-25T01:18:35.635Z,15.84
2019-05-25T01:19:35.618Z,15.84
2019-05-25T01:20:35.601Z,15.96
2019-05-25T01:21:35.590Z,15.84
2019-05-25T01:22:35.583Z,15.85
2019-05-25T01:23:35.589Z,15.89
2019-05-25T01:24:44.296Z,15.84
2019-05-25T01:25:36.551Z,15.85
2019-05-25T01:26:35.541Z,15.77
2019-05-25T01:27:35.531Z,15.78
2019-05-25T01:28:37.797Z,15.78
2019-05-25T01:29:35.508Z,15.81
2019-05-25T01:30:35.493Z,15.78
2019-05-25T01:31:35.486Z,15.80
2019-05-25T01:32:35.477Z,15.77
2019-05-25T01:33:35.477Z,15.71
2019-05-25T01:34:35.451Z,15.70
2019-05-25T01:35:35.444Z,15.81
2019-05-25T01:36:35.429Z,15.77
2019-05-25T01:37:35.417Z,15.73
2019-05-25T01:38:35.418Z,15.60
2019-05-25T01:39:35.399Z,15.59
2019-05-25T01:40:35.385Z,15.71
2019-05-25T01:41:35.376Z,15.70
2019-05-25T01:42:35.366Z,15.60
2019-05-25T01:43:35.378Z,15.66
2019-05-25T01:44:35.344Z,15.62
2019-05-25T01:45:35.332Z,15.66
2019-05-25T01:46:35.323Z,15.64
2019-05-25T01:47:35.317Z,15.62
2019-05-25T01:48:35.310Z,15.60
2019-05-25T01:49:35.291Z,15.53
2019-05-25T01:50:35.281Z,15.62
2019-05-25T01:51:35.266Z,15.56
2019-05-25T01:52:35.256Z,15.55
2019-05-25T01:53:35.258Z,15.59
2019-05-25T01:54:35.239Z,15.55
2019-05-25T01:55:35.224Z,15.38
2019-05-25T01:56:35.213Z,15.38
2019-05-25T01:57:35.201Z,15.41
2019-05-25T01:58:35.205Z,15.38
2019-05-25T01:59:35.180Z,15.41
2019-05-25T02:00:35.179Z,15.40
2019-05-25T02:01:35.167Z,15.37
2019-05-25T02:02:35.151Z,15.34
2019-05-25T02:03:35.177Z,15.38
2019-05-25T02:04:35.127Z,15.35
2019-05-25T02:05:35.116Z,15.38
2019-05-25T02:06:35.108Z,15.37
2019-05-25T02:07:35.093Z,15.41
2019-05-25T02:08:35.093Z,15.40
2019-05-25T02:09:35.072Z,15.40
2019-05-25T02:10:35.063Z,15.38
2019-05-25T02:11:35.051Z,15.34
2019-05-25T02:12:35.040Z,15.27
2019-05-25T02:13:35.041Z,15.27
2019-05-25T02:14:35.020Z,15.23
2019-05-25T02:15:35.009Z,15.25
2019-05-25T02:16:34.997Z,15.25
2019-05-25T02:17:34.985Z,15.23
2019-05-25T02:18:34.973Z,15.18
2019-05-25T02:19:34.976Z,15.27
2019-05-25T02:20:34.952Z,15.30
2019-05-25T02:21:34.949Z,15.18
2019-05-25T02:22:34.955Z,15.20
2019-05-25T02:23:34.924Z,15.12
2019-05-25T02:24:34.920Z,15.16
2019-05-25T02:25:34.898Z,15.13
2019-05-25T02:26:34.888Z,15.18
2019-05-25T02:27:34.888Z,15.15
2019-05-25T02:28:34.868Z,15.09
2019-05-25T02:29:34.874Z,15.15
2019-05-25T02:30:34.845Z,15.13
2019-05-25T02:31:34.832Z,15.13
2019-05-25T02:32:34.822Z,15.19
2019-05-25T02:33:34.811Z,15.12
2019-05-25T02:34:34.811Z,15.05
2019-05-25T02:35:34.791Z,15.05
2019-05-25T02:36:34.785Z,15.09
2019-05-25T02:37:34.769Z,15.12
2019-05-25T02:38:34.757Z,15.00
2019-05-25T02:39:34.760Z,14.97
2019-05-25T02:40:34.736Z,15.09
2019-05-25T02:41:34.727Z,14.93
2019-05-25T02:42:34.714Z,14.95
2019-05-25T02:43:34.711Z,14.93
2019-05-25T02:44:34.706Z,14.93
2019-05-25T02:45:34.681Z,14.94
2019-05-25T02:46:34.673Z,14.97
2019-05-25T02:47:34.679Z,14.93
2019-05-25T02:48:34.652Z,14.95
2019-05-25T02:49:34.653Z,14.93
2019-05-25T02:50:34.627Z,14.87
2019-05-25T02:51:34.618Z,14.95
2019-05-25T02:52:34.607Z,14.87
2019-05-25T02:53:34.612Z,14.94
2019-05-25T02:54:34.594Z,14.91
2019-05-25T02:55:35.328Z,14.91
2019-05-25T02:56:34.565Z,14.90
2019-05-25T02:57:34.552Z,14.90
2019-05-25T02:58:34.544Z,14.94
2019-05-25T02:59:34.560Z,14.94
2019-05-25T03:00:34.522Z,14.90
2019-05-25T03:01:34.512Z,14.87
2019-05-25T03:02:34.509Z,14.87
2019-05-25T03:03:34.498Z,14.86
2019-05-25T03:04:34.490Z,14.91
2019-05-25T03:05:34.465Z,14.83
2019-05-25T03:06:34.455Z,14.83
2019-05-25T03:07:34.445Z,14.83
2019-05-25T03:08:34.435Z,14.79
2019-05-25T03:09:34.438Z,14.82
2019-05-25T03:10:34.422Z,14.86
2019-05-25T03:11:34.401Z,14.87
2019-05-25T03:12:34.390Z,14.80
2019-05-25T03:13:34.378Z,14.75
2019-05-25T03:14:34.388Z,14.82
2019-05-25T03:15:34.358Z,14.75
2019-05-25T03:16:34.353Z,14.69
2019-05-25T03:17:34.341Z,14.67
2019-05-25T03:18:34.325Z,14.69
2019-05-25T03:19:34.315Z,14.75
2019-05-25T03:20:34.310Z,14.78
2019-05-25T03:21:34.292Z,14.71
2019-05-25T03:22:34.285Z,14.66
2019-05-25T03:23:34.270Z,14.61
2019-05-25T03:24:34.262Z,14.60
2019-05-25T03:25:48.523Z,14.63
2019-05-25T03:26:35.239Z,14.61
2019-05-25T03:27:34.227Z,14.64
2019-05-25T03:28:34.219Z,14.66
2019-05-25T03:29:34.217Z,14.63
2019-05-25T03:30:34.213Z,14.63
2019-05-25T03:31:34.185Z,14.66
2019-05-25T03:32:34.173Z,14.66
2019-05-25T03:33:34.166Z,14.63
2019-05-25T03:34:34.198Z,14.64
2019-05-25T03:35:34.150Z,14.64
2019-05-25T03:36:34.133Z,14.63
2019-05-25T03:37:34.119Z,14.63
2019-05-25T03:38:34.113Z,14.64
2019-05-25T03:39:34.123Z,14.64
2019-05-25T03:40:34.098Z,14.64
2019-05-25T03:41:34.078Z,14.64
2019-05-25T03:42:34.065Z,14.69
2019-05-25T03:43:34.109Z,14.67
2019-05-25T03:44:34.050Z,14.71
2019-05-25T03:45:34.045Z,14.63
2019-05-25T03:46:34.022Z,14.66
2019-05-25T03:47:34.011Z,14.66
2019-05-25T03:48:34.001Z,14.60
2019-05-25T03:49:33.991Z,14.67
2019-05-25T03:50:34.004Z,14.66
2019-05-25T03:51:33.969Z,14.63
2019-05-25T03:52:33.959Z,14.63
2019-05-25T03:53:33.947Z,14.63
2019-05-25T03:54:33.936Z,14.60
2019-05-25T03:55:33.937Z,14.71
2019-05-25T03:56:33.923Z,14.71
2019-05-25T03:57:33.906Z,14.67
2019-05-25T03:58:33.893Z,14.69
2019-05-25T03:59:33.882Z,14.66
2019-05-25T04:00:33.883Z,14.67
2019-05-25T04:01:33.862Z,14.63
2019-05-25T04:02:33.849Z,14.74
2019-05-25T04:03:33.847Z,14.67
2019-05-25T04:04:33.829Z,14.66
2019-05-25T04:05:33.828Z,14.63
2019-05-25T04:06:33.806Z,14.66
2019-05-25T04:07:33.794Z,14.78
2019-05-25T04:08:33.791Z,14.66
2019-05-25T04:09:33.774Z,14.66
2019-05-25T04:10:33.762Z,14.71
2019-05-25T04:11:33.767Z,14.66
2019-05-25T04:12:33.740Z,14.61
2019-05-25T04:13:33.731Z,14.69
2019-05-25T04:14:33.720Z,14.61
2019-05-25T04:15:33.710Z,14.63
2019-05-25T04:16:33.712Z,14.61
2019-05-25T04:17:33.688Z,14.78
2019-05-25T04:18:33.676Z,14.74
2019-05-25T04:19:33.665Z,14.64
2019-05-25T04:20:33.656Z,14.71
2019-05-25T04:21:33.659Z,14.74
2019-05-25T04:22:33.632Z,14.64
2019-05-25T04:23:33.621Z,14.64
2019-05-25T04:24:33.611Z,14.67
2019-05-25T04:25:33.601Z,14.69
2019-05-25T04:26:33.605Z,14.71
2019-05-25T04:27:33.579Z,14.72
2019-05-25T04:28:33.567Z,14.79
2019-05-25T04:29:33.557Z,14.80
2019-05-25T04:30:33.547Z,14.72
2019-05-25T04:31:33.548Z,14.82
2019-05-25T04:32:33.529Z,14.80
2019-05-25T04:33:33.514Z,14.82
2019-05-25T04:34:33.504Z,14.86
2019-05-25T04:35:33.505Z,14.94
2019-05-25T04:36:33.494Z,14.97
2019-05-25T04:37:33.480Z,14.95
2019-05-25T04:38:33.459Z,14.98
2019-05-25T04:39:33.448Z,14.95
2019-05-25T04:40:33.438Z,14.95
2019-05-25T04:41:33.439Z,15.05
2019-05-25T04:42:33.417Z,15.05
2019-05-25T04:43:33.407Z,15.09
2019-05-25T04:44:33.402Z,15.07
2019-05-25T04:45:33.404Z,15.12
2019-05-25T04:46:33.385Z,15.15
2019-05-25T04:47:33.368Z,15.12
2019-05-25T04:48:33.355Z,15.16
2019-05-25T04:49:33.349Z,15.16
2019-05-25T04:50:33.331Z,15.19
2019-05-25T04:51:33.335Z,15.22
2019-05-25T04:52:33.308Z,15.13
2019-05-25T04:53:33.298Z,15.19
2019-05-25T04:54:33.288Z,15.19
2019-05-25T04:55:33.275Z,15.28
2019-05-25T04:56:39.558Z,15.28
2019-05-25T04:57:34.255Z,15.23
2019-05-25T04:58:33.258Z,15.19
2019-05-25T04:59:33.232Z,15.23
2019-05-25T05:00:33.226Z,15.30
2019-05-25T05:01:33.225Z,15.23
2019-05-25T05:02:33.201Z,15.27
2019-05-25T05:03:33.204Z,15.25
2019-05-25T05:04:33.178Z,15.33
2019-05-25T05:05:33.168Z,15.35
2019-05-25T05:06:33.323Z,15.37
2019-05-25T05:07:33.147Z,15.35
2019-05-25T05:08:35.591Z,15.44
2019-05-25T05:09:33.126Z,15.40
2019-05-25T05:10:33.117Z,15.40
2019-05-25T05:11:33.115Z,15.41
2019-05-25T05:12:33.103Z,15.48
2019-05-25T05:13:33.086Z,15.40
2019-05-25T05:14:33.071Z,15.41
2019-05-25T05:15:33.062Z,15.55
2019-05-25T05:16:33.053Z,15.55
2019-05-25T05:17:33.051Z,15.44
2019-05-25T05:18:33.027Z,15.53
2019-05-25T05:19:33.017Z,15.51
2019-05-25T05:20:33.006Z,15.55
2019-05-25T05:21:32.994Z,15.55
2019-05-25T05:22:33.006Z,15.56
2019-05-25T05:23:32.973Z,15.55
2019-05-25T05:24:32.964Z,15.59
2019-05-25T05:25:32.953Z,15.62
2019-05-25T05:26:32.940Z,15.62
2019-05-25T05:27:32.946Z,15.66
2019-05-25T05:28:32.920Z,15.73
2019-05-25T05:29:32.910Z,15.68
2019-05-25T05:30:32.904Z,15.64
2019-05-25T05:31:32.888Z,15.67
2019-05-25T05:32:32.887Z,15.60
2019-05-25T05:33:32.885Z,15.64
2019-05-25T05:34:32.863Z,15.74
2019-05-25T05:35:32.846Z,15.80
2019-05-25T05:36:32.842Z,15.77
2019-05-25T05:37:32.837Z,15.74
2019-05-25T05:38:32.814Z,15.85
2019-05-25T05:39:32.812Z,15.84
2019-05-25T05:40:32.801Z,15.84
2019-05-25T05:41:32.794Z,15.77
2019-05-25T05:42:32.784Z,15.88
2019-05-25T05:43:32.758Z,15.76
2019-05-25T05:44:32.747Z,15.77
2019-05-25T05:45:32.759Z,15.78
2019-05-25T05:46:32.731Z,15.76
2019-05-25T05:47:32.731Z,15.76
2019-05-25T05:48:32.712Z,15.81
2019-05-25T05:49:32.700Z,15.73
2019-05-25T05:50:32.682Z,15.81
2019-05-25T05:51:32.775Z,15.86
2019-05-25T05:52:32.682Z,15.80
2019-05-25T05:53:32.651Z,15.86
2019-05-25T05:54:32.729Z,15.77
2019-05-25T05:55:32.630Z,15.81
2019-05-25T05:56:32.617Z,15.77
2019-05-25T05:57:32.619Z,15.77
2019-05-25T05:58:32.604Z,15.91
2019-05-25T05:59:32.586Z,15.81
2019-05-25T06:00:32.576Z,15.88
2019-05-25T06:01:32.566Z,15.76
2019-05-25T06:02:32.568Z,15.81
2019-05-25T06:03:32.543Z,15.73
2019-05-25T06:04:32.548Z,15.73
2019-05-25T06:05:32.522Z,15.70
2019-05-25T06:06:32.511Z,15.73
2019-05-25T06:07:32.513Z,15.62
2019-05-25T06:08:32.492Z,15.68
2019-05-25T06:09:32.488Z,15.71
2019-05-25T06:10:32.469Z,15.67
2019-05-25T06:11:32.457Z,15.64
2019-05-25T06:12:32.459Z,15.67
2019-05-25T06:13:32.436Z,15.64
2019-05-25T06:14:32.440Z,15.68
2019-05-25T06:15:32.423Z,15.70
2019-05-25T06:16:32.404Z,15.66
2019-05-25T06:17:32.404Z,15.68
2019-05-25T06:18:32.382Z,15.67
2019-05-25T06:19:32.372Z,15.68
2019-05-25T06:20:32.360Z,15.70
2019-05-25T06:21:32.365Z,15.67
2019-05-25T06:22:32.357Z,15.68
2019-05-25T06:23:32.332Z,15.60
2019-05-25T06:24:32.318Z,15.74
2019-05-25T06:25:32.318Z,15.67
2019-05-25T06:26:32.297Z,15.67
2019-05-25T06:27:32.303Z,15.71
2019-05-25T06:28:32.276Z,15.77
2019-05-25T06:29:32.270Z,15.85
2019-05-25T06:30:32.252Z,15.84
2019-05-25T06:31:32.242Z,15.88
2019-05-25T06:32:32.241Z,15.89
2019-05-25T06:33:32.219Z,15.92
2019-05-25T06:34:32.216Z,15.85
2019-05-25T06:35:32.212Z,15.98
2019-05-25T06:36:32.191Z,15.92
2019-05-25T06:37:32.191Z,15.98
2019-05-25T06:38:32.169Z,15.92
2019-05-25T06:39:32.157Z,16.10
2019-05-25T06:40:32.144Z,16.08
2019-05-25T06:41:32.135Z,16.10
2019-05-25T06:42:32.137Z,16.10
2019-05-25T06:43:32.112Z,16.10
2019-05-25T06:44:32.110Z,16.14
2019-05-25T06:45:32.096Z,16.14
2019-05-25T06:46:32.130Z,16.16
2019-05-25T06:47:32.081Z,16.18
2019-05-25T06:48:32.061Z,16.22
2019-05-25T06:49:32.049Z,16.22
2019-05-25T06:50:32.038Z,16.25
2019-05-25T06:51:32.030Z,16.29
2019-05-25T06:52:32.027Z,16.34
2019-05-25T06:53:32.010Z,16.29
2019-05-25T06:54:31.994Z,16.30
2019-05-25T06:55:31.984Z,16.44
2019-05-25T06:56:31.975Z,16.44
2019-05-25T06:57:42.680Z,16.41
2019-05-25T06:58:32.952Z,16.41
2019-05-25T06:59:31.941Z,16.48
2019-05-25T07:00:31.930Z,16.42
2019-05-25T07:01:31.920Z,16.55
2019-05-25T07:02:31.910Z,16.42
2019-05-25T07:03:31.905Z,16.51
2019-05-25T07:04:31.891Z,16.62
2019-05-25T07:05:31.876Z,16.62
2019-05-25T07:06:31.867Z,16.67
2019-05-25T07:07:31.858Z,16.65
2019-05-25T07:08:31.848Z,16.75
2019-05-25T07:09:31.836Z,16.69
2019-05-25T07:10:31.828Z,16.77
2019-05-25T07:11:31.811Z,16.81
2019-05-25T07:12:31.804Z,16.81
2019-05-25T07:13:31.803Z,16.87
2019-05-25T07:14:31.781Z,16.90
2019-05-25T07:15:31.770Z,16.92
2019-05-25T07:16:31.761Z,16.92
2019-05-25T07:17:31.747Z,16.96
2019-05-25T07:18:35.281Z,16.91
2019-05-25T07:19:31.728Z,16.99
2019-05-25T07:20:31.714Z,17.07
2019-05-25T07:21:31.705Z,17.06
2019-05-25T07:22:31.699Z,17.05
2019-05-25T07:23:31.694Z,17.09
2019-05-25T07:24:31.674Z,17.10
2019-05-25T07:25:31.661Z,17.15
2019-05-25T07:26:31.652Z,17.18
2019-05-25T07:27:31.649Z,17.24
2019-05-25T07:28:31.650Z,17.24
2019-05-25T07:29:31.630Z,17.24
2019-05-25T07:30:31.610Z,17.30
2019-05-25T07:31:31.599Z,17.32
2019-05-25T07:32:31.585Z,17.42
2019-05-25T07:33:31.586Z,17.33
2019-05-25T07:34:31.563Z,17.42
2019-05-25T07:35:31.550Z,17.40
2019-05-25T07:36:31.540Z,17.46
2019-05-25T07:37:31.531Z,17.39
2019-05-25T07:38:31.536Z,17.49
2019-05-25T07:39:31.513Z,17.62
2019-05-25T07:40:31.500Z,17.57
2019-05-25T07:41:31.491Z,17.66
2019-05-25T07:42:31.477Z,17.80
2019-05-25T07:43:31.481Z,17.87
2019-05-25T07:44:31.453Z,17.99
2019-05-25T07:45:31.446Z,18.02
2019-05-25T07:46:31.431Z,18.17
2019-05-25T07:47:31.436Z,18.16
2019-05-25T07:48:31.439Z,18.29
2019-05-25T07:49:31.400Z,18.44
2019-05-25T07:50:31.390Z,18.49
2019-05-25T07:51:31.376Z,18.53
2019-05-25T07:52:31.365Z,18.53
2019-05-25T07:53:31.371Z,18.66
2019-05-25T07:54:31.354Z,18.76
2019-05-25T07:55:31.415Z,18.76
2019-05-25T07:56:31.330Z,18.84
2019-05-25T07:57:31.312Z,18.90
2019-05-25T07:58:31.313Z,18.89
2019-05-25T07:59:31.291Z,19.06
2019-05-25T08:00:31.280Z,19.17
2019-05-25T08:01:31.273Z,19.16
2019-05-25T08:02:31.259Z,19.30
2019-05-25T08:03:31.275Z,19.35
2019-05-25T08:04:31.236Z,19.45
2019-05-25T08:05:31.225Z,19.49
2019-05-25T08:06:31.234Z,19.49
2019-05-25T08:07:31.216Z,19.49
2019-05-25T08:08:31.199Z,19.55
2019-05-25T08:09:31.288Z,19.49
2019-05-25T08:10:31.172Z,19.50
2019-05-25T08:11:31.164Z,19.62
2019-05-25T08:12:31.187Z,19.55
2019-05-25T08:13:31.140Z,19.60
2019-05-25T08:14:31.141Z,19.64
2019-05-25T08:15:31.125Z,19.71
2019-05-25T08:16:31.109Z,19.78
2019-05-25T08:17:31.097Z,19.78
2019-05-25T08:18:31.087Z,19.79
2019-05-25T08:19:31.087Z,19.75
2019-05-25T08:20:31.066Z,19.72
2019-05-25T08:21:31.060Z,19.72
2019-05-25T08:22:31.042Z,19.67
2019-05-25T08:23:31.032Z,19.75
2019-05-25T08:24:31.034Z,19.71
2019-05-25T08:25:31.010Z,19.76
2019-05-25T08:26:31.009Z,19.75
2019-05-25T08:27:31.002Z,19.76
2019-05-25T08:28:33.031Z,19.82
2019-05-25T08:29:30.979Z,19.82
2019-05-25T08:30:30.961Z,19.87
2019-05-25T08:31:30.949Z,19.87
2019-05-25T08:32:30.934Z,19.89
2019-05-25T08:33:30.948Z,19.92
2019-05-25T08:34:30.927Z,19.79
2019-05-25T08:35:30.902Z,19.78
2019-05-25T08:36:30.890Z,19.80
2019-05-25T08:37:30.881Z,19.79
2019-05-25T08:38:30.869Z,19.79
2019-05-25T08:39:30.873Z,19.83
2019-05-25T08:40:30.868Z,19.94
2019-05-25T08:41:30.837Z,19.86
2019-05-25T08:42:30.827Z,19.97
2019-05-25T08:43:30.815Z,20.02
2019-05-25T08:44:30.815Z,20.08
2019-05-25T08:45:30.803Z,20.08
2019-05-25T08:46:30.782Z,20.12
2019-05-25T08:47:30.775Z,20.16
2019-05-25T08:48:30.761Z,20.17
2019-05-25T08:49:30.761Z,20.13
2019-05-25T08:50:38.316Z,20.13
2019-05-25T08:51:31.727Z,20.10
2019-05-25T08:52:30.717Z,20.19
2019-05-25T08:53:40.755Z,20.26
2019-05-25T08:54:31.714Z,20.12
2019-05-25T08:55:30.685Z,20.30
2019-05-25T08:56:30.676Z,20.26
2019-05-25T08:57:30.665Z,20.22
2019-05-25T08:58:30.651Z,20.23
2019-05-25T08:59:30.642Z,20.35
2019-05-25T09:00:30.635Z,20.25
2019-05-25T09:01:30.625Z,20.25
2019-05-25T09:02:30.614Z,20.27
2019-05-25T09:03:30.598Z,20.37
2019-05-25T09:04:30.588Z,20.35
2019-05-25T09:05:30.582Z,20.40
2019-05-25T09:06:30.569Z,20.46
2019-05-25T09:07:30.565Z,20.54
2019-05-25T09:08:30.570Z,20.41
2019-05-25T09:09:30.534Z,20.58
2019-05-25T09:10:30.534Z,20.63
2019-05-25T09:11:30.514Z,20.63
2019-05-25T09:12:30.502Z,20.64
2019-05-25T09:13:30.489Z,20.69
2019-05-25T09:14:30.481Z,20.76
2019-05-25T09:15:30.485Z,20.82
2019-05-25T09:16:30.462Z,20.88
2019-05-25T09:17:30.447Z,20.91
2019-05-25T09:18:30.439Z,20.83
2019-05-25T09:19:30.425Z,20.87
2019-05-25T09:20:30.419Z,21.00
2019-05-25T09:21:30.404Z,21.09
2019-05-25T09:22:30.395Z,21.13
2019-05-25T09:23:30.383Z,21.22
2019-05-25T09:24:30.371Z,21.27
2019-05-25T09:25:30.394Z,21.34
2019-05-25T09:26:30.350Z,21.37
2019-05-25T09:27:30.364Z,21.31
2019-05-25T09:28:30.328Z,21.31
2019-05-25T09:29:30.318Z,21.21
2019-05-25T09:30:30.316Z,21.27
2019-05-25T09:31:30.299Z,21.21
2019-05-25T09:32:30.329Z,21.28
2019-05-25T09:33:30.275Z,21.36
2019-05-25T09:34:30.269Z,21.37
2019-05-25T09:35:30.258Z,21.49
2019-05-25T09:36:30.247Z,21.55
2019-05-25T09:37:30.268Z,21.82
2019-05-25T09:38:30.249Z,21.85
2019-05-25T09:39:30.228Z,21.90
2019-05-25T09:40:30.207Z,22.08
2019-05-25T09:41:30.191Z,22.26
2019-05-25T09:42:30.183Z,22.44
2019-05-25T09:43:30.169Z,22.63
2019-05-25T09:44:30.162Z,22.82
2019-05-25T09:45:30.154Z,23.00
2019-05-25T09:46:30.138Z,23.16
2019-05-25T09:47:30.129Z,23.41
2019-05-25T09:48:30.116Z,23.50
2019-05-25T09:49:30.105Z,23.68
2019-05-25T09:50:30.103Z,23.75
2019-05-25T09:51:30.084Z,23.87
2019-05-25T09:52:30.072Z,23.84
2019-05-25T09:53:30.080Z,23.81
2019-05-25T09:54:30.051Z,23.90
2019-05-25T09:55:30.044Z,23.93
2019-05-25T09:56:30.031Z,23.84
2019-05-25T09:57:30.021Z,23.78
2019-05-25T09:58:30.011Z,23.68
2019-05-25T09:59:29.997Z,23.63
2019-05-25T10:00:29.993Z,23.57
2019-05-25T10:01:30.001Z,23.54
2019-05-25T10:02:29.975Z,23.42
2019-05-25T10:03:29.957Z,23.39
2019-05-25T10:04:29.944Z,23.44
2019-05-25T10:05:29.936Z,23.42
2019-05-25T10:06:29.948Z,23.47
2019-05-25T10:07:29.912Z,23.39
2019-05-25T10:08:29.900Z,23.26
2019-05-25T10:09:29.892Z,23.23
2019-05-25T10:10:29.900Z,23.18
2019-05-25T10:11:29.869Z,23.06
2019-05-25T10:12:29.858Z,23.16
2019-05-25T10:13:29.848Z,23.06
2019-05-25T10:14:29.837Z,23.04
2019-05-25T10:15:29.837Z,23.07
2019-05-25T10:16:29.819Z,23.06
2019-05-25T10:17:29.804Z,22.97
2019-05-25T10:18:29.794Z,22.93
2019-05-25T10:19:29.783Z,22.84
2019-05-25T10:20:29.787Z,22.81
2019-05-25T10:21:29.765Z,22.85
2019-05-25T10:22:29.754Z,22.69
2019-05-25T10:23:29.743Z,22.70
2019-05-25T10:24:29.730Z,22.61
2019-05-25T10:25:29.731Z,22.64
2019-05-25T10:26:29.708Z,22.67
2019-05-25T10:27:29.699Z,22.44
2019-05-25T10:28:29.690Z,22.46
2019-05-25T10:29:37.078Z,22.36
2019-05-25T10:30:30.676Z,22.41
2019-05-25T10:31:29.654Z,22.24
2019-05-25T10:32:29.643Z,22.23
2019-05-25T10:33:29.629Z,22.12
2019-05-25T10:34:29.624Z,22.15
2019-05-25T10:35:29.630Z,22.08
2019-05-25T10:36:29.597Z,22.01
2019-05-25T10:37:29.590Z,21.93
2019-05-25T10:38:29.575Z,22.04
2019-05-25T10:39:29.565Z,21.99
2019-05-25T10:40:29.570Z,21.93
2019-05-25T10:41:29.544Z,21.91
2019-05-25T10:42:29.532Z,21.86
2019-05-25T10:43:29.521Z,21.89
2019-05-25T10:44:29.511Z,21.90
2019-05-25T10:45:29.533Z,21.91
2019-05-25T10:46:29.495Z,21.90
2019-05-25T10:47:29.527Z,21.86
2019-05-25T10:48:29.466Z,21.86
2019-05-25T10:49:29.457Z,21.82
2019-05-25T10:50:29.465Z,21.85
2019-05-25T10:51:29.434Z,21.85
2019-05-25T10:52:29.427Z,21.82
2019-05-25T10:53:29.414Z,21.71
2019-05-25T10:54:29.402Z,21.75
2019-05-25T10:55:29.401Z,21.74
2019-05-25T10:56:29.381Z,21.74
2019-05-25T10:57:29.369Z,21.75
2019-05-25T10:58:29.363Z,21.77
2019-05-25T10:59:29.348Z,21.67
2019-05-25T11:00:29.362Z,21.81
2019-05-25T11:01:29.326Z,21.77
2019-05-25T11:02:29.320Z,21.83
2019-05-25T11:03:29.305Z,21.91
2019-05-25T11:04:29.293Z,22.01
2019-05-25T11:05:29.280Z,22.09
2019-05-25T11:06:29.283Z,22.06
2019-05-25T11:07:29.262Z,22.12
2019-05-25T11:08:29.249Z,22.23
2019-05-25T11:09:29.243Z,22.33
2019-05-25T11:10:29.275Z,22.31
2019-05-25T11:11:29.227Z,22.48
2019-05-25T11:12:29.206Z,22.45
2019-05-25T11:13:29.195Z,22.45
2019-05-25T11:14:29.186Z,22.49
2019-05-25T11:15:29.177Z,22.60
2019-05-25T11:16:29.186Z,22.70
2019-05-25T11:17:29.150Z,22.63
2019-05-25T11:18:29.158Z,22.74
2019-05-25T11:19:29.149Z,22.67
2019-05-25T11:20:29.130Z,22.72
2019-05-25T11:21:29.121Z,22.82
2019-05-25T11:22:29.100Z,22.75
2019-05-25T11:23:29.085Z,22.76
2019-05-25T11:24:29.076Z,22.78
2019-05-25T11:25:29.066Z,22.91
2019-05-25T11:26:29.067Z,23.03
2019-05-25T11:27:29.048Z,23.09
2019-05-25T11:28:29.035Z,23.15
2019-05-25T11:29:29.022Z,23.14
2019-05-25T11:30:29.014Z,23.12
2019-05-25T11:31:29.118Z,23.14
2019-05-25T11:32:28.993Z,23.15
2019-05-25T11:33:28.988Z,23.03
2019-05-25T11:34:28.973Z,22.96
2019-05-25T11:35:28.958Z,23.18
2019-05-25T11:36:28.959Z,23.18
2019-05-25T11:37:28.938Z,23.35
2019-05-25T11:38:28.926Z,23.41
2019-05-25T11:39:28.919Z,23.60
2019-05-25T11:40:28.905Z,23.82
2019-05-25T11:41:28.909Z,24.09
2019-05-25T11:42:28.885Z,24.41
2019-05-25T11:43:28.875Z,24.59
2019-05-25T11:44:28.862Z,24.83
2019-05-25T11:45:28.873Z,24.98
2019-05-25T11:46:28.852Z,24.99
2019-05-25T11:47:28.831Z,25.08
2019-05-25T11:48:28.831Z,25.19
2019-05-25T11:49:28.808Z,25.20
2019-05-25T11:50:28.797Z,25.14
2019-05-25T11:51:28.815Z,25.20
2019-05-25T11:52:28.778Z,25.39
2019-05-25T11:53:28.773Z,25.35
2019-05-25T11:54:28.866Z,25.41
2019-05-25T11:55:28.746Z,25.53
2019-05-25T11:56:28.747Z,25.79
2019-05-25T11:57:28.725Z,26.06
2019-05-25T11:58:28.720Z,26.21
2019-05-25T11:59:28.703Z,26.31
2019-05-25T12:00:28.698Z,26.34
2019-05-25T12:01:28.706Z,26.00
2019-05-25T12:02:28.672Z,25.90
2019-05-25T12:03:28.670Z,25.72
2019-05-25T12:04:28.652Z,25.71
2019-05-25T12:05:28.639Z,25.74
2019-05-25T12:06:28.643Z,25.85
2019-05-25T12:07:28.618Z,25.79
2019-05-25T12:08:28.606Z,25.81
2019-05-25T12:09:28.597Z,25.93
2019-05-25T12:10:28.585Z,26.21
2019-05-25T12:11:28.604Z,26.42
2019-05-25T12:12:28.563Z,26.53
2019-05-25T12:13:31.953Z,26.41
2019-05-25T12:14:28.545Z,26.57
2019-05-25T12:15:28.532Z,26.57
2019-05-25T12:16:28.539Z,26.57
2019-05-25T12:17:28.510Z,26.46
2019-05-25T12:18:28.503Z,26.41
2019-05-25T12:19:28.490Z,26.42
2019-05-25T12:20:28.487Z,26.51
2019-05-25T12:21:28.484Z,26.59
2019-05-25T12:22:28.459Z,26.86
2019-05-25T12:23:28.449Z,27.15
2019-05-25T12:24:28.443Z,27.38
2019-05-25T12:25:28.427Z,27.77
2019-05-25T12:26:28.430Z,28.13
2019-05-25T12:27:28.408Z,28.83
2019-05-25T12:28:28.412Z,29.63
2019-05-25T12:29:28.388Z,30.36
2019-05-25T12:30:40.217Z,30.78
2019-05-25T12:31:29.382Z,31.46
2019-05-25T12:32:28.361Z,32.17
2019-05-25T12:33:28.349Z,33.07
2019-05-25T12:34:28.341Z,33.78
2019-05-25T12:35:28.332Z,34.58
2019-05-25T12:36:28.333Z,35.42
2019-05-25T12:37:28.316Z,36.02
2019-05-25T12:38:28.306Z,35.85
2019-05-25T12:39:28.299Z,36.25
2019-05-25T12:40:28.282Z,36.97
2019-05-25T12:41:28.285Z,37.70
2019-05-25T12:42:28.263Z,38.33
2019-05-25T12:43:28.254Z,38.97
2019-05-25T12:44:28.285Z,39.65
2019-05-25T12:45:28.293Z,40.13
2019-05-25T12:46:28.266Z,40.76
2019-05-25T12:47:28.221Z,41.29
2019-05-25T12:48:28.209Z,41.66
2019-05-25T12:49:28.200Z,42.34
2019-05-25T12:50:28.194Z,42.38
2019-05-25T12:51:28.198Z,42.54
2019-05-25T12:52:28.178Z,42.98